Alpine, Pennsylvania
Current Conditions -  °F | °C
As of 5:56 PM on Friday 28 Nov 2014 (Local Time) from KCXY Reporting Station
Clear Clear  
Wind Chill: -1°   Ceiling: Unl
Heat Index: -1°   Visibility: 10mi
Dew Point: -9°   Wind: 3mph
Humidity: 54%   Direction: 270°W
Pressure: 30.26"   Gusts: NA
Location:  40.1328°N, 76.8833°W
Report Text: KCXY 282256Z 27003KT 10SM CLR M01/M09 A3026 RMK AO2 SLP254 T10111094
Loading
Personal Weather Stations






























Interactive Weather Map New forecast layout! Learn more

10-Day Weather Forecast

Advertisements
Track Severe Weather on mobile